createdAt,value
2018-09-24T00:02:05.155Z,90.90
2018-09-24T00:04:33.496Z,91.20
2018-09-24T00:07:01.905Z,91.30
2018-09-24T00:09:30.312Z,91.10
2018-09-24T00:11:58.762Z,91.10
2018-09-24T00:14:27.475Z,91.20
2018-09-24T00:16:55.813Z,91.30
2018-09-24T00:19:24.207Z,91.30
2018-09-24T00:21:52.677Z,91.30
2018-09-24T00:24:21.123Z,91.40
2018-09-24T00:26:49.491Z,91.50
2018-09-24T00:29:17.916Z,91.30
2018-09-24T00:31:46.245Z,91.30
2018-09-24T00:34:14.656Z,91.40
2018-09-24T00:36:43.068Z,91.30
2018-09-24T00:39:11.776Z,91.20
2018-09-24T00:41:40.234Z,91.10
2018-09-24T00:44:08.657Z,91.30
2018-09-24T00:46:37.122Z,91.10
2018-09-24T00:49:05.454Z,91.20
2018-09-24T00:51:33.899Z,91.40
2018-09-24T00:54:02.291Z,90.90
2018-09-24T00:56:30.728Z,91.20
2018-09-24T00:58:59.172Z,91.30
2018-09-24T01:01:27.541Z,91.60
2018-09-24T01:03:55.968Z,91.70
2018-09-24T01:06:24.428Z,91.90
2018-09-24T01:08:52.852Z,92.00
2018-09-24T01:11:21.324Z,91.90
2018-09-24T01:13:49.744Z,91.90
2018-09-24T01:16:18.236Z,92.00
2018-09-24T01:18:46.707Z,92.10
2018-09-24T01:21:15.228Z,92.20
2018-09-24T01:23:43.536Z,92.20
2018-09-24T01:26:11.886Z,92.40
2018-09-24T01:28:40.364Z,92.50
2018-09-24T01:31:09.240Z,92.50
2018-09-24T01:33:37.525Z,92.50
2018-09-24T01:36:05.955Z,92.60
2018-09-24T01:38:34.381Z,92.30
2018-09-24T01:41:02.817Z,92.00
2018-09-24T01:43:31.250Z,91.90
2018-09-24T01:45:59.744Z,91.70
2018-09-24T01:48:28.058Z,91.70
2018-09-24T01:50:56.533Z,91.90
2018-09-24T01:53:24.915Z,92.10
2018-09-24T01:55:53.269Z,92.20
2018-09-24T01:58:21.737Z,92.20
2018-09-24T02:00:50.089Z,92.30
2018-09-24T02:03:18.478Z,92.30
2018-09-24T02:05:47.005Z,92.60
2018-09-24T02:08:15.472Z,92.50
2018-09-24T02:10:43.888Z,92.40
2018-09-24T02:13:12.369Z,92.70
2018-09-24T02:15:40.792Z,92.80
2018-09-24T02:18:10.944Z,92.70
2018-09-24T02:20:46.521Z,92.90
2018-09-24T02:23:15.173Z,92.90
2018-09-24T02:25:43.762Z,92.80
2018-09-24T02:28:12.230Z,92.70
2018-09-24T02:30:40.593Z,92.90
2018-09-24T02:33:12.596Z,92.90
2018-09-24T02:35:46.829Z,92.70
2018-09-24T02:38:15.477Z,92.60
2018-09-24T02:40:43.847Z,92.80
2018-09-24T02:43:12.347Z,92.50
2018-09-24T02:45:40.748Z,92.50
2018-09-24T02:48:10.917Z,92.40
2018-09-24T02:50:39.857Z,93.00
2018-09-24T02:53:09.928Z,92.70
2018-09-24T02:55:38.433Z,92.80
2018-09-24T02:58:06.968Z,92.90
2018-09-24T03:00:35.408Z,92.90
2018-09-24T03:03:11.753Z,92.90
2018-09-24T03:05:40.425Z,92.90
2018-09-24T03:08:12.155Z,92.90
2018-09-24T03:10:40.905Z,93.30
2018-09-24T03:13:11.037Z,93.50
2018-09-24T03:15:41.025Z,93.30
2018-09-24T03:18:11.209Z,93.40
2018-09-24T03:20:41.888Z,93.30
2018-09-24T03:23:11.501Z,93.50
2018-09-24T03:25:40.420Z,93.40
2018-09-24T03:28:10.509Z,93.40
2018-09-24T03:30:40.472Z,93.50
2018-09-24T03:33:10.573Z,93.50
2018-09-24T03:35:38.942Z,93.50
2018-09-24T03:38:08.769Z,93.60
2018-09-24T03:40:37.200Z,93.60
2018-09-24T03:43:05.568Z,93.60
2018-09-24T03:45:33.948Z,93.90
2018-09-24T03:48:02.397Z,94.00
2018-09-24T03:50:30.762Z,94.10
2018-09-24T03:52:59.158Z,94.10
2018-09-24T03:55:27.663Z,93.90
2018-09-24T03:57:56.150Z,93.80
2018-09-24T04:00:24.543Z,93.70
2018-09-24T04:02:52.953Z,93.90
2018-09-24T04:05:27.060Z,93.90
2018-09-24T04:08:01.012Z,94.10
2018-09-24T04:10:34.819Z,94.00
2018-09-24T04:13:09.044Z,94.20
2018-09-24T04:15:42.942Z,94.30
2018-09-24T04:18:16.761Z,94.40
2018-09-24T04:20:50.547Z,94.40
2018-09-24T04:23:24.328Z,94.40
2018-09-24T04:25:58.162Z,94.40
2018-09-24T04:28:32.021Z,94.40
2018-09-24T04:31:06.033Z,94.30
2018-09-24T04:33:39.781Z,94.30
2018-09-24T04:36:13.553Z,94.40
2018-09-24T04:38:47.541Z,94.30
2018-09-24T04:41:21.345Z,94.30
2018-09-24T04:43:55.130Z,94.40
2018-09-24T04:46:29.067Z,94.40
2018-09-24T04:49:03.113Z,94.40
2018-09-24T04:51:36.998Z,94.40
2018-09-24T04:54:10.726Z,94.40
2018-09-24T04:56:44.689Z,94.60
2018-09-24T04:59:18.576Z,94.80
2018-09-24T05:01:52.455Z,94.80
2018-09-24T05:04:26.260Z,94.60
2018-09-24T05:07:00.282Z,94.60
2018-09-24T05:09:34.119Z,94.70
2018-09-24T05:12:08.046Z,94.60
2018-09-24T05:14:41.865Z,94.70
2018-09-24T05:17:15.837Z,94.80
2018-09-24T05:19:49.788Z,94.90
2018-09-24T05:22:25.628Z,94.90
2018-09-24T05:24:59.416Z,95.00
2018-09-24T05:27:33.194Z,95.00
2018-09-24T05:30:07.133Z,95.10
2018-09-24T05:32:40.976Z,95.10
2018-09-24T05:35:14.785Z,95.10
2018-09-24T05:37:48.985Z,95.00
2018-09-24T05:40:22.836Z,95.20
2018-09-24T05:42:56.769Z,95.30
2018-09-24T05:45:30.577Z,95.40
2018-09-24T05:48:04.535Z,95.50
2018-09-24T05:50:38.394Z,95.50
2018-09-24T05:53:12.383Z,96.00
2018-09-24T05:55:46.121Z,95.70
2018-09-24T05:58:19.840Z,95.70
2018-09-24T06:00:53.885Z,95.80
2018-09-24T06:03:27.756Z,95.90
2018-09-24T06:06:01.549Z,96.00
2018-09-24T06:08:35.317Z,96.10
2018-09-24T06:11:10.988Z,96.10
2018-09-24T06:13:44.795Z,96.00
2018-09-24T06:16:18.480Z,96.10
2018-09-24T06:18:52.365Z,96.10
2018-09-24T06:21:26.244Z,96.10
2018-09-24T06:24:00.192Z,96.20
2018-09-24T06:26:33.989Z,96.30
2018-09-24T06:29:07.992Z,96.20
2018-09-24T06:31:42.016Z,96.10
2018-09-24T06:34:15.874Z,96.10
2018-09-24T06:36:49.689Z,96.20
2018-09-24T06:39:23.631Z,96.20
2018-09-24T06:41:57.388Z,96.40
2018-09-24T06:44:31.259Z,96.50
2018-09-24T06:47:05.250Z,96.50
2018-09-24T06:49:38.970Z,96.60
2018-09-24T06:52:12.802Z,96.60
2018-09-24T06:54:46.493Z,96.80
2018-09-24T06:57:20.305Z,96.90
2018-09-24T06:59:54.197Z,96.90
2018-09-24T07:02:27.954Z,96.80
2018-09-24T07:05:01.967Z,96.80
2018-09-24T07:07:35.900Z,97.00
2018-09-24T07:10:09.834Z,97.00
2018-09-24T07:12:43.579Z,97.40
2018-09-24T07:15:17.637Z,97.30
2018-09-24T07:17:51.361Z,97.40
2018-09-24T07:20:25.172Z,97.60
2018-09-24T07:22:58.865Z,97.70
2018-09-24T07:25:32.734Z,98.00
2018-09-24T07:28:06.641Z,98.10
2018-09-24T07:30:40.666Z,98.00
2018-09-24T07:33:14.573Z,98.40
2018-09-24T07:35:48.433Z,98.70
2018-09-24T07:38:22.193Z,98.60
2018-09-24T07:40:55.998Z,98.70
2018-09-24T07:43:29.951Z,98.60
2018-09-24T07:46:04.724Z,98.50
2018-09-24T07:48:38.556Z,98.20
2018-09-24T07:51:12.449Z,98.10
2018-09-24T07:53:46.501Z,98.10
2018-09-24T07:56:20.369Z,97.70
2018-09-24T07:58:54.289Z,97.40
2018-09-24T08:01:27.923Z,97.10
2018-09-24T08:04:01.736Z,97.90
2018-09-24T08:06:35.529Z,97.80
2018-09-24T08:09:11.026Z,97.80
2018-09-24T08:11:44.918Z,98.00
2018-09-24T08:17:08.364Z,98.30
2018-09-24T08:19:42.144Z,98.50
2018-09-24T08:22:16.045Z,98.70
2018-09-24T08:24:50.031Z,98.70
2018-09-24T08:27:23.737Z,99.00
2018-09-24T08:29:57.557Z,99.20
2018-09-24T08:32:31.597Z,99.10
2018-09-24T08:35:05.446Z,99.10
2018-09-24T08:37:39.420Z,98.70
2018-09-24T08:40:13.258Z,98.80
2018-09-24T08:42:47.180Z,98.20
2018-09-24T08:45:20.870Z,97.40
2018-09-24T08:47:54.865Z,96.50
2018-09-24T08:50:28.744Z,96.50
2018-09-24T08:53:02.572Z,96.50
2018-09-24T08:55:36.410Z,96.40
2018-09-24T08:58:10.106Z,96.20
2018-09-24T09:00:45.045Z,96.20
2018-09-24T09:03:18.920Z,96.60
2018-09-24T09:05:52.753Z,95.80
2018-09-24T09:08:26.713Z,95.80
2018-09-24T09:11:00.581Z,95.20
2018-09-24T09:13:34.534Z,95.20
2018-09-24T09:16:08.393Z,95.20
2018-09-24T09:18:42.089Z,94.50
2018-09-24T09:21:15.844Z,94.60
2018-09-24T09:23:49.698Z,94.30
2018-09-24T09:26:23.586Z,93.80
2018-09-24T09:28:57.362Z,93.20
2018-09-24T09:31:31.380Z,93.40
2018-09-24T09:34:05.234Z,93.90
2018-09-24T09:36:39.052Z,93.20
2018-09-24T09:39:13.709Z,92.70
2018-09-24T09:41:47.526Z,92.20
2018-09-24T09:44:21.185Z,93.10
2018-09-24T09:47:01.950Z,92.20
2018-09-24T09:49:35.660Z,92.20
2018-09-24T09:52:09.519Z,91.90
2018-09-24T09:54:43.400Z,91.70
2018-09-24T09:57:17.228Z,91.20
2018-09-24T09:59:51.016Z,91.60
2018-09-24T10:02:24.968Z,91.30
2018-09-24T10:04:58.792Z,91.20
2018-09-24T10:07:32.657Z,89.60
2018-09-24T10:10:06.473Z,89.70
2018-09-24T10:12:40.278Z,89.00
2018-09-24T10:15:27.133Z,87.90
2018-09-24T10:18:00.882Z,85.30
2018-09-24T10:20:34.672Z,85.60
2018-09-24T10:23:10.101Z,81.90
2018-09-24T10:25:44.033Z,82.50
2018-09-24T10:28:18.311Z,81.70
2018-09-24T10:30:52.156Z,77.80
2018-09-24T10:33:25.930Z,79.20
2018-09-24T10:35:59.626Z,79.40
2018-09-24T10:38:33.428Z,77.40
2018-09-24T10:41:07.292Z,78.00
2018-09-24T10:43:41.040Z,77.20
2018-09-24T10:46:14.882Z,77.20
2018-09-24T10:48:48.741Z,74.90
2018-09-24T10:51:22.661Z,74.10
2018-09-24T10:53:56.536Z,72.70
2018-09-24T10:56:30.296Z,71.00
2018-09-24T10:59:04.160Z,71.30
2018-09-24T11:01:37.897Z,69.40
2018-09-24T11:04:11.674Z,67.40
2018-09-24T11:06:45.513Z,67.80
2018-09-24T11:09:19.223Z,66.50
2018-09-24T11:11:52.995Z,66.10
2018-09-24T11:14:51.072Z,67.00
2018-09-24T11:17:25.008Z,64.30
2018-09-24T11:19:58.625Z,62.60
2018-09-24T11:22:32.313Z,62.80
2018-09-24T11:25:06.028Z,62.10
2018-09-24T11:27:39.808Z,62.20
2018-09-24T11:30:13.696Z,63.50
2018-09-24T11:32:47.564Z,62.20
2018-09-24T11:35:21.445Z,60.20
2018-09-24T11:37:55.333Z,59.80
2018-09-24T11:40:29.136Z,59.10
2018-09-24T11:43:02.973Z,58.40
2018-09-24T11:45:36.804Z,57.30
2018-09-24T11:48:10.788Z,57.10
2018-09-24T11:50:44.498Z,57.10
2018-09-24T11:53:19.188Z,57.40
2018-09-24T11:55:52.962Z,50.20
2018-09-24T11:58:26.585Z,47.50
2018-09-24T12:01:00.436Z,44.40
2018-09-24T12:03:34.273Z,44.30
2018-09-24T12:06:08.036Z,40.90
2018-09-24T12:08:41.853Z,42.00
2018-09-24T12:11:21.492Z,41.10
2018-09-24T12:13:55.284Z,41.40
2018-09-24T12:16:29.101Z,41.00
2018-09-24T12:19:02.932Z,40.30
2018-09-24T12:21:36.813Z,38.80
2018-09-24T12:24:10.831Z,37.70
2018-09-24T12:26:44.776Z,37.90
2018-09-24T12:29:18.711Z,37.70
2018-09-24T12:31:52.433Z,38.90
2018-09-24T12:34:26.264Z,39.60
2018-09-24T12:37:00.140Z,40.20
2018-09-24T12:39:34.108Z,40.40
2018-09-24T12:42:07.910Z,39.40
2018-09-24T12:44:41.772Z,39.00
2018-09-24T12:47:15.588Z,39.40
2018-09-24T12:49:49.480Z,40.80
2018-09-24T12:52:23.241Z,40.60
2018-09-24T12:54:56.865Z,40.40
2018-09-24T12:57:30.657Z,39.80
2018-09-24T13:00:04.401Z,38.80
2018-09-24T13:02:38.217Z,40.10
2018-09-24T13:05:12.064Z,40.60
2018-09-24T13:07:45.978Z,40.50
2018-09-24T13:10:19.865Z,40.40
2018-09-24T13:12:53.637Z,39.50
2018-09-24T13:15:56.591Z,39.70
2018-09-24T13:18:30.311Z,39.00
2018-09-24T13:21:04.264Z,39.10
2018-09-24T13:23:38.161Z,38.60
2018-09-24T13:26:12.009Z,37.30
2018-09-24T13:28:45.688Z,37.40
2018-09-24T13:31:19.494Z,38.20
2018-09-24T13:33:53.352Z,37.90
2018-09-24T13:36:27.207Z,36.90
2018-09-24T13:39:01.089Z,37.40
2018-09-24T13:41:34.900Z,37.60
2018-09-24T13:44:08.765Z,37.60
2018-09-24T13:46:42.615Z,37.40
2018-09-24T13:49:16.459Z,36.80
2018-09-24T13:51:50.113Z,36.20
2018-09-24T13:54:24.065Z,36.00
2018-09-24T13:56:57.845Z,35.00
2018-09-24T13:59:31.781Z,35.80
2018-09-24T14:02:05.592Z,35.70
2018-09-24T14:04:39.394Z,35.90
2018-09-24T14:07:13.223Z,35.50
2018-09-24T14:09:46.985Z,35.60
2018-09-24T14:12:20.885Z,34.10
2018-09-24T14:15:23.127Z,34.20
2018-09-24T14:17:57.004Z,34.50
2018-09-24T14:20:30.736Z,34.00
2018-09-24T14:23:04.433Z,33.70
2018-09-24T14:25:38.234Z,33.70
2018-09-24T14:28:11.916Z,33.40
2018-09-24T14:30:45.729Z,32.60
2018-09-24T14:33:19.677Z,31.80
2018-09-24T14:35:53.512Z,32.10
2018-09-24T14:38:27.230Z,32.90
2018-09-24T14:41:00.956Z,32.50
2018-09-24T14:43:34.843Z,31.10
2018-09-24T14:46:08.609Z,31.40
2018-09-24T14:48:42.459Z,31.80
2018-09-24T14:51:16.381Z,30.10
2018-09-24T14:53:50.384Z,30.00
2018-09-24T14:56:24.187Z,29.30
2018-09-24T14:58:57.906Z,28.40
2018-09-24T15:01:31.673Z,28.90
2018-09-24T15:04:05.535Z,28.20
2018-09-24T15:06:39.372Z,28.30
2018-09-24T15:09:13.993Z,28.50
2018-09-24T15:11:47.737Z,28.80
2018-09-24T15:14:38.370Z,29.10
2018-09-24T15:17:12.300Z,29.00
2018-09-24T15:19:46.056Z,29.40
2018-09-24T15:22:19.985Z,28.90
2018-09-24T15:24:53.933Z,29.00
2018-09-24T15:27:27.764Z,28.10
2018-09-24T15:30:01.553Z,28.50
2018-09-24T15:32:35.512Z,29.00
2018-09-24T15:35:09.625Z,28.30
2018-09-24T15:37:43.436Z,28.40
2018-09-24T15:40:17.321Z,28.80
2018-09-24T15:42:51.004Z,28.30
2018-09-24T15:45:25.145Z,28.00
2018-09-24T15:47:58.936Z,28.10
2018-09-24T15:50:32.753Z,28.30
2018-09-24T15:53:06.491Z,28.20
2018-09-24T15:55:40.361Z,28.40
2018-09-24T15:58:14.228Z,27.60
2018-09-24T16:00:48.069Z,28.00
2018-09-24T16:03:21.909Z,28.10
2018-09-24T16:05:55.853Z,29.00
2018-09-24T16:08:29.649Z,29.40
2018-09-24T16:11:03.313Z,28.70
2018-09-24T16:13:37.290Z,29.30
2018-09-24T16:16:39.447Z,30.00
2018-09-24T16:19:13.056Z,30.10
2018-09-24T16:21:46.776Z,30.00
2018-09-24T16:24:20.772Z,30.00
2018-09-24T16:26:54.589Z,30.00
2018-09-24T16:29:28.386Z,30.90
2018-09-24T16:32:02.069Z,29.70
2018-09-24T16:34:35.773Z,29.50
2018-09-24T16:37:09.580Z,29.80
2018-09-24T16:39:43.332Z,30.30
2018-09-24T16:42:17.308Z,30.80
2018-09-24T16:44:51.137Z,30.40
2018-09-24T16:47:24.861Z,30.50
2018-09-24T16:49:58.760Z,30.20
2018-09-24T16:52:32.340Z,30.40
2018-09-24T16:55:06.082Z,30.40
2018-09-24T16:57:39.993Z,31.40
2018-09-24T17:00:13.789Z,30.80
2018-09-24T17:02:47.804Z,30.80
2018-09-24T17:05:21.593Z,31.30
2018-09-24T17:07:55.392Z,31.80
2018-09-24T17:10:29.164Z,31.40
2018-09-24T17:13:02.768Z,32.40
2018-09-24T17:18:50.008Z,32.40
2018-09-24T17:21:23.772Z,33.10
2018-09-24T17:23:57.688Z,32.30
2018-09-24T17:26:31.408Z,32.80
2018-09-24T17:29:05.546Z,31.90
2018-09-24T17:31:39.692Z,32.30
2018-09-24T17:34:13.513Z,33.70
2018-09-24T17:36:47.529Z,34.90
2018-09-24T17:39:21.644Z,33.30
2018-09-24T17:41:55.763Z,32.90
2018-09-24T17:44:30.016Z,34.20
2018-09-24T17:47:04.301Z,34.40
2018-09-24T17:49:39.268Z,35.70
2018-09-24T17:52:14.251Z,36.10
2018-09-24T17:54:48.536Z,35.80
2018-09-24T17:57:23.278Z,34.60
2018-09-24T17:59:57.617Z,35.30
2018-09-24T18:02:32.253Z,35.10
2018-09-24T18:05:06.572Z,35.10
2018-09-24T18:07:40.882Z,34.00
2018-09-24T18:10:15.281Z,33.90
2018-09-24T18:12:49.539Z,34.40
2018-09-24T18:18:36.956Z,35.70
2018-09-24T18:21:12.125Z,36.00
2018-09-24T18:23:46.453Z,35.00
2018-09-24T18:26:21.105Z,34.60
2018-09-24T18:28:55.568Z,34.70
2018-09-24T18:31:30.471Z,34.80
2018-09-24T18:34:05.241Z,35.10
2018-09-24T18:36:39.541Z,36.00
2018-09-24T18:39:14.814Z,36.20
2018-09-24T18:41:49.064Z,36.40
2018-09-24T18:44:23.604Z,36.30
2018-09-24T18:46:57.817Z,36.00
2018-09-24T18:49:32.097Z,36.30
2018-09-24T18:52:06.552Z,36.60
2018-09-24T18:54:40.769Z,37.00
2018-09-24T18:57:14.988Z,38.00
2018-09-24T18:59:49.156Z,37.80
2018-09-24T19:02:23.504Z,38.00
2018-09-24T19:04:57.644Z,38.10
2018-09-24T19:07:31.759Z,38.40
2018-09-24T19:10:05.893Z,38.10
2018-09-24T19:12:39.922Z,38.40
2018-09-24T19:18:32.579Z,38.20
2018-09-24T19:21:06.685Z,38.90
2018-09-24T19:23:40.830Z,39.60
2018-09-24T19:26:14.676Z,39.10
2018-09-24T19:28:48.529Z,39.40
2018-09-24T19:31:22.258Z,40.20
2018-09-24T19:33:56.060Z,40.40
2018-09-24T19:36:29.944Z,40.40
2018-09-24T19:39:03.606Z,40.70
2018-09-24T19:41:37.300Z,39.90
2018-09-24T19:44:11.497Z,40.10
2018-09-24T19:46:45.213Z,40.40
2018-09-24T19:49:19.070Z,40.00
2018-09-24T19:51:52.788Z,40.10
2018-09-24T19:54:26.508Z,39.70
2018-09-24T19:57:00.580Z,40.60
2018-09-24T19:59:34.773Z,40.90
2018-09-24T20:02:08.654Z,40.90
2018-09-24T20:04:42.501Z,40.90
2018-09-24T20:07:16.254Z,41.20
2018-09-24T20:09:50.152Z,41.60
2018-09-24T20:12:23.856Z,41.80
2018-09-24T20:15:30.345Z,42.00
2018-09-24T20:18:04.523Z,42.40
2018-09-24T20:20:38.629Z,43.30
2018-09-24T20:23:12.496Z,42.70
2018-09-24T20:26:08.436Z,42.80
2018-09-24T20:28:42.607Z,43.00
2018-09-24T20:31:17.053Z,41.30
2018-09-24T20:33:50.766Z,42.90
2018-09-24T20:36:24.709Z,43.70
2018-09-24T20:38:58.374Z,44.40
2018-09-24T20:41:32.238Z,44.60
2018-09-24T20:44:06.010Z,43.20
2018-09-24T20:46:39.904Z,42.50
2018-09-24T20:49:13.589Z,42.90
2018-09-24T20:51:47.313Z,43.50
2018-09-24T20:54:21.034Z,42.40
2018-09-24T20:56:54.677Z,42.10
2018-09-24T20:59:28.465Z,42.10
2018-09-24T21:02:02.319Z,40.80
2018-09-24T21:04:36.435Z,40.40
2018-09-24T21:07:10.373Z,40.60
2018-09-24T21:09:44.161Z,40.70
2018-09-24T21:12:17.927Z,40.20
2018-09-24T21:15:16.988Z,40.70
2018-09-24T21:17:51.008Z,40.30
2018-09-24T21:20:25.086Z,40.50
2018-09-24T21:22:59.269Z,40.00
2018-09-24T21:25:32.981Z,39.60
2018-09-24T21:28:06.757Z,39.70
2018-09-24T21:30:40.566Z,40.00
2018-09-24T21:33:14.631Z,40.60
2018-09-24T21:35:48.373Z,41.30
2018-09-24T21:38:22.125Z,41.00
2018-09-24T21:40:55.875Z,41.80
2018-09-24T21:43:29.929Z,41.40
2018-09-24T21:46:03.776Z,42.00
2018-09-24T21:48:37.711Z,41.20
2018-09-24T21:51:11.728Z,41.30
2018-09-24T21:53:45.544Z,41.00
2018-09-24T21:56:19.400Z,40.30
2018-09-24T21:58:53.247Z,40.00
2018-09-24T22:01:27.107Z,41.50
2018-09-24T22:04:00.929Z,41.50
2018-09-24T22:06:34.905Z,42.50
2018-09-24T22:09:08.897Z,42.00
2018-09-24T22:11:42.716Z,40.20
2018-09-24T22:14:16.461Z,35.80
2018-09-24T22:16:50.445Z,37.70
2018-09-24T22:19:24.289Z,40.10
2018-09-24T22:21:58.085Z,40.90
2018-09-24T22:24:32.389Z,40.50
2018-09-24T22:27:06.344Z,41.00
2018-09-24T22:29:40.465Z,40.20
2018-09-24T22:32:14.247Z,40.50
2018-09-24T22:34:48.252Z,41.20
2018-09-24T22:37:22.236Z,39.70
2018-09-24T22:39:56.128Z,38.50
2018-09-24T22:42:30.324Z,40.40
2018-09-24T22:45:04.195Z,39.20
2018-09-24T22:47:38.229Z,38.60
2018-09-24T22:50:12.217Z,38.20
2018-09-24T22:52:46.346Z,38.50
2018-09-24T22:55:20.220Z,40.10
2018-09-24T22:57:54.089Z,39.60
2018-09-24T23:00:28.241Z,38.20
2018-09-24T23:03:01.977Z,38.50
2018-09-24T23:05:35.846Z,39.00
2018-09-24T23:08:09.616Z,36.50
2018-09-24T23:10:43.392Z,37.60
2018-09-24T23:13:19.069Z,35.30
2018-09-24T23:15:53.764Z,33.90
2018-09-24T23:18:27.560Z,34.50
2018-09-24T23:21:01.525Z,35.60
2018-09-24T23:23:35.572Z,35.80
2018-09-24T23:26:09.310Z,36.10
2018-09-24T23:28:43.241Z,35.60
2018-09-24T23:31:16.996Z,35.70
2018-09-24T23:33:50.777Z,33.30
2018-09-24T23:36:24.606Z,34.20
2018-09-24T23:38:58.302Z,34.00
2018-09-24T23:41:32.059Z,33.60
2018-09-24T23:44:05.881Z,34.80
2018-09-24T23:46:39.652Z,35.60
2018-09-24T23:49:13.636Z,33.20
2018-09-24T23:51:47.408Z,32.70
2018-09-24T23:54:21.305Z,33.10
2018-09-24T23:56:55.268Z,33.70
2018-09-24T23:59:29.104Z,34.30
